Time;durP1;ratioP1;P1;durP2;ratioP2;P2;SDS_P1;SDS_P2;PMS_P1;PMS_P2;Temp;Humidity;BMP_temperature;BMP_pressure;BME280_temperature;BME280_humidity;BME280_pressure;Samples;Min_cycle;Max_cycle;Signal;HPM_P1;HPM_P2
2022/04/23 00:02:01;;;;;;;;;;;;;;;17.71;70.28;99739.28;4971043;28;1708;-58
2022/04/23 00:04:28;;;;;;;;;;;;;;;17.71;70.31;99731.25;4960258;28;1614;-55
2022/04/23 00:06:55;;;;;;;;;;;;;;;17.73;70.19;99748.00;4967822;28;1977;-61
2022/04/23 00:09:21;;;;;;;;;;;;;;;17.73;69.99;99758.69;4968145;28;1370;-61
2022/04/23 00:11:48;;;;;;;;;;;;;;;17.73;70.28;99756.03;4970276;28;1645;-61
2022/04/23 00:14:17;;;;;;;;;;;;;;;17.70;70.61;99756.31;4964683;28;1780;-56
2022/04/23 00:16:44;;;;;;;;;;;;;;;17.68;70.61;99748.44;4973733;28;1587;-61
2022/04/23 00:19:10;;;;;;;;;;;;;;;17.68;70.70;99737.72;4959344;28;1417;-61
2022/04/23 00:21:37;;;;;;;;;;;;;;;17.69;70.87;99750.13;4967590;28;1015;-61
2022/04/23 00:24:04;;;;;;;;;;;;;;;17.70;71.27;99733.06;4963760;28;1660;-61
2022/04/23 00:26:31;;;;;;;;;;;;;;;17.68;70.41;99737.72;4964170;28;1919;-56
2022/04/23 00:28:57;;;;;;;;;;;;;;;17.72;71.63;99740.13;4939909;28;1681;-62
2022/04/23 00:31:26;;;;;;;;;;;;;;;17.69;71.12;99744.78;4966979;28;1424;-55
2022/04/23 00:33:53;;;;;;;;;;;;;;;17.69;71.19;99738.59;4973028;28;1575;-61
2022/04/23 00:36:23;;;;;;;;;;;;;;;17.69;71.16;99741.28;4969125;28;1066;-55
2022/04/23 00:38:52;;;;;;;;;;;;;;;17.70;70.68;99735.75;4971838;28;1767;-55
2022/04/23 00:44:00;;;;;;;;;;;;;;;17.68;70.84;99740.41;4969945;28;2267;-61
2022/04/23 00:46:28;;;;;;;;;;;;;;;17.67;70.90;99745.94;4967296;28;1906;-55
2022/04/23 00:48:55;;;;;;;;;;;;;;;17.65;70.54;99748.75;4963699;28;1366;-61
2022/04/23 00:51:21;;;;;;;;;;;;;;;17.66;70.72;99744.22;4964914;28;1465;-55
2022/04/23 00:53:48;;;;;;;;;;;;;;;17.66;70.74;99752.25;4971782;28;1633;-61
2022/04/23 00:56:15;;;;;;;;;;;;;;;17.64;71.35;99740.88;4963599;28;1374;-56
2022/04/23 00:58:42;;;;;;;;;;;;;;;17.64;70.77;99740.88;4969348;28;1688;-56
2022/04/23 01:01:08;;;;;;;;;;;;;;;17.62;70.76;99742.84;4966847;28;1626;-61
2022/04/23 01:03:37;;;;;;;;;;;;;;;17.63;70.70;99749.91;4963493;28;1386;-61
2022/04/23 01:06:03;;;;;;;;;;;;;;;17.60;70.81;99736.81;4967981;28;1910;-56
2022/04/23 01:08:31;;;;;;;;;;;;;;;17.65;71.20;99755.94;4967143;28;1578;-61
2022/04/23 01:10:58;;;;;;;;;;;;;;;17.61;71.53;99744.69;4967155;28;1590;-56
2022/04/23 01:13:25;;;;;;;;;;;;;;;17.64;71.19;99763.09;4967504;28;1397;-55
2022/04/23 01:15:59;;;;;;;;;;;;;;;17.63;71.13;99748.06;4965250;28;1581;-61
2022/04/23 01:18:25;;;;;;;;;;;;;;;17.62;70.92;99748.19;4964927;28;1459;-55
2022/04/23 01:20:53;;;;;;;;;;;;;;;17.64;71.15;99756.91;4963209;28;1697;-57
2022/04/23 01:23:20;;;;;;;;;;;;;;;17.60;71.91;99745.69;4965447;28;1958;-55
2022/04/23 01:25:53;;;;;;;;;;;;;;;17.61;71.71;99759.91;4962472;28;1621;-60
2022/04/23 01:28:20;;;;;;;;;;;;;;;17.62;71.74;99758.91;4967711;28;1904;-61
2022/04/23 01:30:48;;;;;;;;;;;;;;;17.59;71.72;99757.38;4964599;28;1608;-55
2022/04/23 01:33:15;;;;;;;;;;;;;;;17.60;71.21;99768.91;4960554;28;997;-55
2022/04/23 01:35:41;;;;;;;;;;;;;;;17.63;71.96;99757.94;4971067;28;1628;-55
2022/04/23 01:38:09;;;;;;;;;;;;;;;17.82;71.33;99767.63;4966324;28;1629;-56
2022/04/23 01:40:36;;;;;;;;;;;;;;;18.34;69.64;99745.53;4966915;28;1515;-61
2022/04/23 01:43:03;;;;;;;;;;;;;;;18.72;68.71;99746.09;4959914;28;1492;-55
2022/04/23 01:45:29;;;;;;;;;;;;;;;18.97;67.69;99742.59;4967464;28;1609;-61
2022/04/23 01:47:56;;;;;;;;;;;;;;;19.17;67.43;99739.66;4966384;28;1974;-55
2022/04/23 01:50:23;;;;;;;;;;;;;;;19.23;67.21;99741.69;4961749;28;1792;-60
2022/04/23 01:52:49;;;;;;;;;;;;;;;19.26;67.12;99744.91;4966459;28;1475;-61
2022/04/23 01:55:18;;;;;;;;;;;;;;;19.41;66.47;99741.59;4964700;28;1574;-56
2022/04/23 01:57:44;;;;;;;;;;;;;;;19.46;67.12;99733.91;4969492;28;1414;-56
2022/04/23 02:00:13;;;;;;;;;;;;;;;19.46;66.41;99745.47;4965952;28;1090;-61
2022/04/23 02:02:40;;;;;;;;;;;;;;;19.32;67.11;99743.41;4963162;28;1489;-55
2022/04/23 02:05:07;;;;;;;;;;;;;;;19.03;67.68;99733.91;4970797;28;1724;-61
2022/04/23 02:07:36;;;;;;;;;;;;;;;18.67;69.08;99739.38;4959559;28;1984;-61
2022/04/23 02:10:03;;;;;;;;;;;;;;;18.53;69.50;99736.47;4968770;28;1535;-55
2022/04/23 02:12:31;;;;;;;;;;;;;;;18.84;68.04;99736.81;4967354;28;1720;-56
2022/04/23 02:14:58;;;;;;;;;;;;;;;19.01;68.09;99743.13;4965751;28;1482;-56
2022/04/23 02:17:33;;;;;;;;;;;;;;;19.10;67.40;99739.50;4963738;28;1363;-56
2022/04/23 02:20:02;;;;;;;;;;;;;;;18.61;67.37;99638.28;4970466;28;1421;-56
2022/04/23 02:22:29;;;;;;;;;;;;;;;19.24;67.60;99735.34;4963262;28;1389;-61
2022/04/23 02:24:56;;;;;;;;;;;;;;;18.97;67.87;99721.16;4964976;28;1385;-61
2022/04/23 02:27:23;;;;;;;;;;;;;;;18.63;69.34;99738.03;4967596;28;1973;-56
2022/04/23 02:29:51;;;;;;;;;;;;;;;18.47;69.59;99752.16;4960668;28;1430;-60
2022/04/23 02:32:17;;;;;;;;;;;;;;;18.36;69.83;99759.59;4964296;28;1577;-60
2022/04/23 02:34:44;;;;;;;;;;;;;;;18.29;69.97;99765.56;4967148;28;1801;-55
2022/04/23 02:37:11;;;;;;;;;;;;;;;18.24;70.09;99783.09;4965662;28;1629;-56
2022/04/23 02:39:38;;;;;;;;;;;;;;;18.16;70.29;99794.56;4964874;28;1509;-56
2022/04/23 02:42:05;;;;;;;;;;;;;;;18.13;70.35;99805.56;4967117;28;1322;-55
2022/04/23 02:44:31;;;;;;;;;;;;;;;18.12;70.32;99822.59;4967202;28;1602;-61
2022/04/23 02:47:00;;;;;;;;;;;;;;;18.12;70.48;99835.16;4957403;28;1907;-56
2022/04/23 02:49:26;;;;;;;;;;;;;;;18.09;70.67;99836.31;4972550;28;1656;-61
2022/04/23 02:51:53;;;;;;;;;;;;;;;18.02;70.55;99851.28;4966072;28;1303;-61
2022/04/23 02:54:20;;;;;;;;;;;;;;;18.03;70.70;99850.28;4965227;28;983;-61
2022/04/23 02:56:46;;;;;;;;;;;;;;;18.01;70.62;99865.66;4963938;28;1508;-55
2022/04/23 02:59:13;;;;;;;;;;;;;;;17.98;70.76;99855.25;4968360;28;1583;-61
2022/04/23 03:01:39;;;;;;;;;;;;;;;17.97;70.67;99859.75;4965450;28;1610;-61
2022/04/23 03:04:10;;;;;;;;;;;;;;;17.92;70.82;99850.50;4956597;28;1518;-61
2022/04/23 03:06:36;;;;;;;;;;;;;;;17.94;70.85;99853.88;4962581;28;1906;-55
2022/04/23 03:09:04;;;;;;;;;;;;;;;17.89;70.94;99840.94;4967329;28;1873;-61
2022/04/23 03:11:31;;;;;;;;;;;;;;;17.87;70.81;99833.06;4960132;28;1979;-55
2022/04/23 03:13:58;;;;;;;;;;;;;;;17.88;70.83;99841.94;4969057;28;1577;-61
2022/04/23 03:16:26;;;;;;;;;;;;;;;17.89;70.93;99830.25;4964990;28;1609;-60
2022/04/23 03:18:53;;;;;;;;;;;;;;;17.86;70.69;99850.09;4973844;28;1515;-61
2022/04/23 03:21:21;;;;;;;;;;;;;;;17.85;70.88;99848.44;4968747;28;1688;-56
2022/04/23 03:23:47;;;;;;;;;;;;;;;17.85;70.92;99847.59;4964530;28;1704;-57
2022/04/23 03:26:14;;;;;;;;;;;;;;;17.86;70.76;99858.13;4965611;28;1353;-61
2022/04/23 03:28:41;;;;;;;;;;;;;;;18.17;69.88;99847.09;4963358;28;1989;-56
2022/04/23 03:31:08;;;;;;;;;;;;;;;18.67;68.55;99851.88;4964839;28;1429;-61
2022/04/23 03:33:35;;;;;;;;;;;;;;;18.92;67.58;99844.06;4969289;28;1520;-61
2022/04/23 03:36:02;;;;;;;;;;;;;;;19.21;66.63;99870.50;4968915;28;1775;-61
2022/04/23 03:38:31;;;;;;;;;;;;;;;19.26;67.14;99865.53;4962090;28;1425;-61
2022/04/23 03:40:58;;;;;;;;;;;;;;;19.25;66.96;99855.78;4961981;28;1633;-61
2022/04/23 03:43:25;;;;;;;;;;;;;;;19.14;67.35;99863.25;4964823;28;1425;-56
2022/04/23 03:45:52;;;;;;;;;;;;;;;19.16;66.88;99856.75;4962728;28;1378;-61
2022/04/23 03:48:19;;;;;;;;;;;;;;;19.25;66.79;99863.00;4965618;28;1911;-61
2022/04/23 03:50:47;;;;;;;;;;;;;;;19.30;66.84;99859.81;4966268;28;1572;-61
2022/04/23 03:53:14;;;;;;;;;;;;;;;19.23;66.64;99862.31;4965100;28;1385;-56
2022/04/23 03:55:41;;;;;;;;;;;;;;;18.93;67.79;99877.03;4963602;28;1381;-61
2022/04/23 03:58:08;;;;;;;;;;;;;;;18.63;68.66;99877.28;4968686;28;1430;-55
2022/04/23 04:00:35;;;;;;;;;;;;;;;18.46;69.12;99880.78;4957247;28;1593;-55
2022/04/23 04:03:02;;;;;;;;;;;;;;;18.31;69.58;99866.28;4929442;29;1075;-61
2022/04/23 04:05:28;;;;;;;;;;;;;;;18.31;69.72;99864.44;4925698;29;1454;-60
2022/04/23 04:07:55;;;;;;;;;;;;;;;18.60;68.71;99872.25;4929320;29;1923;-55
2022/04/23 04:10:22;;;;;;;;;;;;;;;18.84;67.80;99862.72;4926723;29;1476;-55
2022/04/23 04:12:51;;;;;;;;;;;;;;;18.72;68.37;99869.31;4925095;29;1394;-61
2022/04/23 04:15:19;;;;;;;;;;;;;;;18.56;68.43;99876.22;4922039;29;1516;-55
2022/04/23 04:17:48;;;;;;;;;;;;;;;18.50;69.06;99871.47;4929108;29;969;-56
2022/04/23 04:20:15;;;;;;;;;;;;;;;18.40;69.41;99866.22;4925406;29;1637;-56
2022/04/23 04:22:42;;;;;;;;;;;;;;;18.35;69.31;99867.66;4921931;29;2006;-61
2022/04/23 04:25:09;;;;;;;;;;;;;;;18.29;69.99;99859.25;4931297;29;1623;-56
2022/04/23 04:27:36;;;;;;;;;;;;;;;18.36;68.32;99869.34;4926381;29;1899;-61
2022/04/23 04:30:05;;;;;;;;;;;;;;;18.28;68.93;99873.63;4924944;29;1352;-55
2022/04/23 04:32:32;;;;;;;;;;;;;;;18.23;68.85;99873.22;4926653;29;1373;-61
2022/04/23 04:34:59;;;;;;;;;;;;;;;18.25;69.29;99883.78;4935235;29;1728;-55
2022/04/23 04:37:25;;;;;;;;;;;;;;;18.22;69.35;99876.06;4930173;29;1582;-55
2022/04/23 04:39:52;;;;;;;;;;;;;;;18.19;69.63;99869.19;4925884;29;1524;-61
2022/04/23 04:42:18;;;;;;;;;;;;;;;18.16;69.69;99874.00;4927283;29;980;-61
2022/04/23 04:44:45;;;;;;;;;;;;;;;18.14;69.63;99866.09;4931914;29;1635;-61
2022/04/23 04:47:13;;;;;;;;;;;;;;;18.18;69.68;99886.22;4923621;29;1914;-61
2022/04/23 04:49:40;;;;;;;;;;;;;;;18.17;69.68;99875.69;4914866;29;1532;-55
2022/04/23 04:52:07;;;;;;;;;;;;;;;18.14;69.46;99881.31;4929036;29;1575;-55
2022/04/23 04:54:33;;;;;;;;;;;;;;;18.10;69.63;99878.09;4927122;29;1546;-61
2022/04/23 04:57:02;;;;;;;;;;;;;;;18.09;69.76;99863.06;4922068;29;1342;-64
2022/04/23 04:59:30;;;;;;;;;;;;;;;18.23;68.74;99859.84;4927101;29;1533;-60
2022/04/23 05:01:56;;;;;;;;;;;;;;;18.37;69.15;99871.03;4953585;28;1613;-62
2022/04/23 05:04:24;;;;;;;;;;;;;;;18.40;68.65;99868.91;4957819;28;1710;-65
2022/04/23 05:06:51;;;;;;;;;;;;;;;18.43;69.10;99870.41;4964273;28;1466;-56
2022/04/23 05:09:17;;;;;;;;;;;;;;;18.46;70.73;99870.09;4967369;28;1970;-56
2022/04/23 05:11:44;;;;;;;;;;;;;;;18.42;69.60;99858.00;4969536;28;1579;-60
2022/04/23 05:14:10;;;;;;;;;;;;;;;18.49;69.99;99875.16;4968823;28;1776;-56
2022/04/23 05:16:37;;;;;;;;;;;;;;;18.52;68.97;99866.78;4963460;28;1394;-62
2022/04/23 05:19:03;;;;;;;;;;;;;;;18.51;69.39;99857.09;4958087;28;1366;-56
2022/04/23 05:21:32;;;;;;;;;;;;;;;18.53;69.14;99865.81;4965339;28;1855;-56
2022/04/23 05:23:58;;;;;;;;;;;;;;;18.54;69.19;99872.00;4962300;28;1735;-56
2022/04/23 05:26:25;;;;;;;;;;;;;;;18.52;69.27;99882.84;4971264;28;1716;-65
2022/04/23 05:28:51;;;;;;;;;;;;;;;18.52;69.00;99888.22;4966890;28;1982;-55
2022/04/23 05:31:18;;;;;;;;;;;;;;;18.60;68.08;99884.78;4967118;28;1594;-65
2022/04/23 05:33:44;;;;;;;;;;;;;;;18.63;68.64;99887.97;4976307;28;1626;-64
2022/04/23 05:36:11;;;;;;;;;;;;;;;18.77;68.33;99902.66;4966128;28;1528;-70
2022/04/23 05:38:39;;;;;;;;;;;;;;;18.80;68.26;99898.84;4971155;28;1644;-65
2022/04/23 05:41:05;;;;;;;;;;;;;;;18.86;68.22;99898.22;4966634;28;1645;-54
2022/04/23 05:43:32;;;;;;;;;;;;;;;18.79;68.39;99892.66;4968033;28;1360;-56
2022/04/23 05:46:00;;;;;;;;;;;;;;;18.72;68.80;99898.75;4961340;28;1469;-56
2022/04/23 05:48:26;;;;;;;;;;;;;;;18.72;68.85;99896.94;4968194;28;1899;-56
2022/04/23 05:50:53;;;;;;;;;;;;;;;18.66;68.84;99895.72;4967711;28;1544;-64
2022/04/23 05:53:20;;;;;;;;;;;;;;;18.65;68.46;99902.06;4968166;28;1561;-64
2022/04/23 05:55:47;;;;;;;;;;;;;;;18.62;68.55;99894.34;4966407;28;1514;-64
2022/04/23 05:58:14;;;;;;;;;;;;;;;18.63;68.58;99892.50;4966046;28;1617;-64
2022/04/23 06:00:40;;;;;;;;;;;;;;;18.64;68.60;99895.03;4965721;28;1587;-64
2022/04/23 06:03:07;;;;;;;;;;;;;;;18.59;68.74;99896.50;4968435;28;1151;-56
2022/04/23 06:05:33;;;;;;;;;;;;;;;18.56;67.55;99903.00;4970582;28;1835;-64
2022/04/23 06:08:00;;;;;;;;;;;;;;;18.57;68.01;99911.88;4966570;28;1978;-56
2022/04/23 06:10:27;;;;;;;;;;;;;;;18.51;68.40;99907.13;4964224;28;1577;-56
2022/04/23 06:12:55;;;;;;;;;;;;;;;18.56;68.08;99913.72;4967709;28;1471;-56
2022/04/23 06:15:21;;;;;;;;;;;;;;;18.50;68.44;99916.97;4964479;28;1453;-64
2022/04/23 06:17:48;;;;;;;;;;;;;;;18.45;68.45;99927.31;4964205;28;1366;-56
2022/04/23 06:20:15;;;;;;;;;;;;;;;18.43;68.66;99926.63;4961860;28;1704;-64
2022/04/23 06:22:41;;;;;;;;;;;;;;;18.38;69.08;99934.25;4965443;28;1421;-64
2022/04/23 06:25:08;;;;;;;;;;;;;;;18.34;69.03;99940.91;4963560;28;1381;-56
2022/04/23 06:27:35;;;;;;;;;;;;;;;18.35;68.67;99956.81;4959467;28;1898;-64
2022/04/23 06:30:03;;;;;;;;;;;;;;;18.33;68.93;99955.31;4956941;28;1266;-64
2022/04/23 06:32:30;;;;;;;;;;;;;;;18.31;68.86;99957.28;4959498;28;1342;-64
2022/04/23 06:34:56;;;;;;;;;;;;;;;18.25;68.90;99959.56;4959442;28;1414;-56
2022/04/23 06:37:23;;;;;;;;;;;;;;;18.26;69.31;99961.25;3926258;28;10000860;-64
2022/04/23 06:39:50;;;;;;;;;;;;;;;18.24;69.34;99965.94;4953332;28;1589;-56
2022/04/23 06:42:17;;;;;;;;;;;;;;;18.24;69.25;99970.41;4948128;28;1419;-64
2022/04/23 06:44:43;;;;;;;;;;;;;;;18.19;69.36;99960.16;4953091;28;1390;-64
2022/04/23 06:47:11;;;;;;;;;;;;;;;18.16;69.44;99955.09;4939963;29;1632;-63
2022/04/23 06:49:38;;;;;;;;;;;;;;;18.14;69.52;99945.53;4939177;28;1984;-64
2022/04/23 06:52:05;;;;;;;;;;;;;;;18.14;69.33;99975.81;4958482;28;1428;-56
2022/04/23 06:54:31;;;;;;;;;;;;;;;18.14;69.56;99978.50;4949461;28;1506;-56
2022/04/23 06:56:58;;;;;;;;;;;;;;;18.20;69.45;99975.22;4957487;28;1491;-63
2022/04/23 06:59:24;;;;;;;;;;;;;;;18.59;68.37;99982.19;4951995;28;1500;-56
2022/04/23 07:01:51;;;;;;;;;;;;;;;19.16;66.44;99976.50;4951925;28;1680;-56
2022/04/23 07:04:19;;;;;;;;;;;;;;;19.58;65.53;99968.59;4954301;28;1661;-56
2022/04/23 07:06:45;;;;;;;;;;;;;;;19.77;65.13;99975.59;4960469;28;1420;-55
2022/04/23 07:09:12;;;;;;;;;;;;;;;19.83;64.30;99972.25;4955113;28;1907;-56
2022/04/23 07:11:39;;;;;;;;;;;;;;;19.91;64.01;99990.25;4952616;28;1613;-64
2022/04/23 07:14:07;;;;;;;;;;;;;;;19.91;65.14;99994.78;4954169;28;1527;-64
2022/04/23 07:16:33;;;;;;;;;;;;;;;19.99;64.56;99992.13;4956200;28;1394;-64
2022/04/23 07:19:00;;;;;;;;;;;;;;;20.12;63.40;99994.38;4944280;28;1198;-64
2022/04/23 07:21:28;;;;;;;;;;;;;;;20.14;63.81;100003.94;4954205;28;1737;-64
2022/04/23 07:24:04;;;;;;;;;;;;;;;19.99;64.75;99998.34;4949975;28;1696;-63
2022/04/23 07:26:31;;;;;;;;;;;;;;;19.52;66.05;100009.44;4954767;28;1692;-65
2022/04/23 07:28:58;;;;;;;;;;;;;;;19.23;66.50;100007.06;4953422;28;1919;-64
2022/04/23 07:31:24;;;;;;;;;;;;;;;19.05;67.86;100021.31;4953386;28;1381;-64
2022/04/23 07:39:21;;;;;;;;;;;;;;;18.82;67.85;100014.72;4956880;28;1645;-56
2022/04/23 07:41:48;;;;;;;;;;;;;;;18.85;68.16;100038.53;4957281;28;1593;-60
2022/04/23 07:44:14;;;;;;;;;;;;;;;18.80;67.97;100039.00;4958502;28;1562;-56
2022/04/23 07:46:41;;;;;;;;;;;;;;;18.83;68.09;100032.50;4965369;28;1562;-64
2022/04/23 07:49:09;;;;;;;;;;;;;;;18.83;67.72;100046.72;4958203;28;1915;-56
2022/04/23 07:51:37;;;;;;;;;;;;;;;18.78;67.77;100049.00;4957638;28;1365;-64
2022/04/23 07:54:03;;;;;;;;;;;;;;;18.71;67.96;100033.69;4959013;28;1591;-56
2022/04/23 07:56:30;;;;;;;;;;;;;;;18.71;68.59;100036.34;4956229;28;1744;-57
2022/04/23 07:58:57;;;;;;;;;;;;;;;18.71;68.63;100045.22;4956889;28;1386;-56
2022/04/23 08:01:23;;;;;;;;;;;;;;;18.65;68.74;100056.53;4950855;28;1331;-56
2022/04/23 08:03:50;;;;;;;;;;;;;;;18.59;68.85;100041.91;4950353;28;1411;-55
2022/04/23 08:06:16;;;;;;;;;;;;;;;18.58;69.06;100058.13;4959632;28;1701;-60
2022/04/23 08:08:44;;;;;;;;;;;;;;;18.59;69.21;100055.31;4959200;28;1990;-56
2022/04/23 08:11:11;;;;;;;;;;;;;;;18.58;69.19;100050.97;4968386;28;1448;-55
2022/04/23 08:13:37;;;;;;;;;;;;;;;18.59;69.33;100057.16;4968346;28;1322;-55
2022/04/23 08:16:05;;;;;;;;;;;;;;;18.86;69.61;100058.97;4970137;28;1581;-62
2022/04/23 08:18:31;;;;;;;;;;;;;;;18.89;68.27;100058.66;4966262;28;963;-63
2022/04/23 08:20:58;;;;;;;;;;;;;;;18.87;68.94;100055.31;4967957;28;1621;-58
2022/04/23 08:23:24;;;;;;;;;;;;;;;18.91;68.46;100053.16;4963798;28;1629;-54
2022/04/23 08:25:55;;;;;;;;;;;;;;;19.00;68.72;100047.75;4964259;28;1505;-55
2022/04/23 08:31:06;;;;;;;;;;;;;;;18.91;69.32;100055.84;4964206;28;1736;-62
2022/04/23 08:36:13;;;;;;;;;;;;;;;19.02;68.98;100069.88;4961413;28;1734;-56
2022/04/23 08:38:40;;;;;;;;;;;;;;;18.95;69.74;100066.09;4970835;28;1648;-54
2022/04/23 08:41:08;;;;;;;;;;;;;;;19.04;70.25;100073.22;4963992;28;1625;-72
2022/04/23 08:43:35;;;;;;;;;;;;;;;19.14;69.72;100066.94;4968624;28;1387;-63
2022/04/23 08:46:03;;;;;;;;;;;;;;;19.10;69.20;100066.41;4960219;28;1544;-52
2022/04/23 08:48:33;;;;;;;;;;;;;;;19.12;69.15;100063.56;4967089;28;1903;-59
2022/04/23 08:51:01;;;;;;;;;;;;;;;19.07;69.11;100066.72;4967561;28;1732;-63
2022/04/23 08:53:29;;;;;;;;;;;;;;;19.04;68.99;100057.16;4965187;28;1413;-53
2022/04/23 08:55:56;;;;;;;;;;;;;;;19.05;69.08;100056.16;4961757;28;1439;-53
2022/04/23 08:58:25;;;;;;;;;;;;;;;19.00;70.29;100069.19;4964832;28;1480;-54
2022/04/23 09:00:51;;;;;;;;;;;;;;;19.05;70.50;100066.03;4963892;28;1636;-53
2022/04/23 09:03:18;;;;;;;;;;;;;;;19.20;70.00;100069.88;4967370;28;1520;-49
2022/04/23 09:05:45;;;;;;;;;;;;;;;19.27;69.79;100067.41;4964970;28;1498;-56
2022/04/23 09:08:13;;;;;;;;;;;;;;;19.52;69.44;100056.84;4969491;28;1590;-55
2022/04/23 09:10:46;;;;;;;;;;;;;;;19.93;69.48;100070.59;4967217;28;1973;-54
2022/04/23 09:13:12;;;;;;;;;;;;;;;19.93;69.42;100055.31;4964326;28;1532;-56
2022/04/23 09:24:08;;;;;;;;;;;;;;;19.26;72.58;100074.59;4964025;28;1653;-56
2022/04/23 09:26:34;;;;;;;;;;;;;;;19.44;71.58;100073.75;4958258;28;1927;-59
2022/04/23 09:29:12;;;;;;;;;;;;;;;19.92;71.26;100075.13;4958984;28;1911;-59
2022/04/23 09:31:40;;;;;;;;;;;;;;;19.89;71.25;100062.00;4959818;28;1505;-65
2022/04/23 09:34:15;;;;;;;;;;;;;;;19.58;71.08;100070.50;4957863;28;1508;-59
2022/04/23 09:36:46;;;;;;;;;;;;;;;19.35;72.04;100080.88;4967535;28;1036;-60
2022/04/23 09:39:13;;;;;;;;;;;;;;;19.27;72.83;100062.03;4963057;28;1780;-53
2022/04/23 09:41:39;;;;;;;;;;;;;;;19.23;73.42;100066.84;4964053;28;1652;-58
2022/04/23 09:44:07;;;;;;;;;;;;;;;19.23;72.94;100069.53;4962478;28;1376;-59
2022/04/23 09:46:44;;;;;;;;;;;;;;;19.23;73.09;100055.31;4965654;28;1628;-53
2022/04/23 09:49:12;;;;;;;;;;;;;;;19.28;72.62;100069.09;4967857;28;1906;-52
2022/04/23 09:51:38;;;;;;;;;;;;;;;19.21;72.84;100068.00;4966956;28;1067;-52
2022/04/23 09:54:05;;;;;;;;;;;;;;;19.08;73.27;100060.38;4963277;28;1513;-53
2022/04/23 09:56:31;;;;;;;;;;;;;;;18.98;73.22;100062.25;4964920;28;1425;-56
2022/04/23 09:58:58;;;;;;;;;;;;;;;18.93;73.41;100064.56;4962112;28;1404;-60
2022/04/23 10:01:25;;;;;;;;;;;;;;;18.87;72.18;100069.53;4960249;28;1230;-59
2022/04/23 10:03:53;;;;;;;;;;;;;;;18.82;72.66;100062.94;4957413;28;1350;-56
2022/04/23 10:06:20;;;;;;;;;;;;;;;18.81;72.40;100066.63;4962745;28;1367;-57
2022/04/23 10:08:49;;;;;;;;;;;;;;;18.81;72.57;100061.28;4964113;28;1973;-53
2022/04/23 10:11:17;;;;;;;;;;;;;;;18.80;72.51;100060.44;4969590;28;1561;-59
2022/04/23 10:13:45;;;;;;;;;;;;;;;18.73;72.39;100058.47;4957971;28;1586;-53
2022/04/23 10:16:13;;;;;;;;;;;;;;;18.83;71.27;100064.63;4958365;28;1556;-61
2022/04/23 10:18:40;;;;;;;;;;;;;;;18.90;70.22;100063.06;4971061;28;1083;-54
2022/04/23 10:21:09;;;;;;;;;;;;;;;18.86;69.90;100046.44;4970341;28;1656;-54
2022/04/23 10:23:46;;;;;;;;;;;;;;;18.82;70.39;100041.50;4962094;28;1438;-61
2022/04/23 10:26:29;;;;;;;;;;;;;;;18.86;69.17;100058.97;4965666;28;1534;-53
2022/04/23 10:28:56;;;;;;;;;;;;;;;18.86;69.17;100065.19;4954666;29;1910;-61
2022/04/23 10:31:23;;;;;;;;;;;;;;;18.89;69.74;100053.31;4962075;28;1373;-64
2022/04/23 10:33:51;;;;;;;;;;;;;;;19.03;70.59;100059.97;4969172;28;1715;-62
2022/04/23 10:36:20;;;;;;;;;;;;;;;18.91;70.86;100050.50;4966898;28;1708;-55
2022/04/23 10:38:51;;;;;;;;;;;;;;;18.81;71.86;100063.94;4965824;28;1498;-54
2022/04/23 10:41:18;;;;;;;;;;;;;;;18.76;72.53;100052.81;4964087;28;1506;-56
2022/04/23 10:43:49;;;;;;;;;;;;;;;18.75;71.75;100062.69;4964068;28;1592;-56
2022/04/23 10:46:35;;;;;;;;;;;;;;;18.76;72.27;100059.03;4965657;28;1486;-56
2022/04/23 10:49:13;;;;;;;;;;;;;;;18.78;72.72;100064.19;4961803;28;1969;-59
2022/04/23 10:51:51;;;;;;;;;;;;;;;18.77;72.09;100070.56;4966162;28;1056;-55
2022/04/23 10:54:20;;;;;;;;;;;;;;;18.73;72.47;100066.50;4964631;28;1106;-59
2022/04/23 10:56:53;;;;;;;;;;;;;;;18.73;72.45;100062.00;4962403;28;1764;-58
2022/04/23 10:59:38;;;;;;;;;;;;;;;18.74;73.09;100054.78;4966942;28;1705;-60
2022/04/23 11:02:06;;;;;;;;;;;;;;;18.72;72.64;100080.88;4967195;28;1661;-60
2022/04/23 11:04:32;;;;;;;;;;;;;;;18.66;73.06;100061.75;4959613;28;1540;-62
2022/04/23 11:12:34;;;;;;;;;;;;;;;18.63;72.49;100059.38;4964739;28;1313;-54
2022/04/23 11:15:01;;;;;;;;;;;;;;;18.70;71.97;100056.91;4969037;28;1366;-61
2022/04/23 11:17:46;;;;;;;;;;;;;;;18.62;72.14;100063.06;4967205;28;1047;-55
2022/04/23 11:20:13;;;;;;;;;;;;;;;18.61;69.39;100050.66;4973529;28;1605;-54
2022/04/23 11:22:41;;;;;;;;;;;;;;;18.61;70.12;100072.06;4972026;28;1279;-53
2022/04/23 11:25:09;;;;;;;;;;;;;;;18.65;70.03;100073.44;4967923;28;1627;-60
2022/04/23 11:27:37;;;;;;;;;;;;;;;18.86;70.65;100069.69;4970202;28;1518;-67
2022/04/23 11:30:04;;;;;;;;;;;;;;;18.96;71.24;100054.41;4968682;28;1977;-49
2022/04/23 11:32:31;;;;;;;;;;;;;;;19.38;70.47;100061.81;4970729;28;1988;-64
2022/04/23 11:34:58;;;;;;;;;;;;;;;19.51;70.53;100047.16;4961910;28;1880;-53
2022/04/23 11:37:31;;;;;;;;;;;;;;;19.32;71.68;100062.44;4968433;28;1388;-65
2022/04/23 11:40:06;;;;;;;;;;;;;;;19.41;71.10;100057.97;4965245;28;1391;-66
2022/04/23 11:42:36;;;;;;;;;;;;;;;19.42;71.62;100057.81;4968007;28;1393;-51
2022/04/23 11:45:03;;;;;;;;;;;;;;;19.25;71.05;100064.03;4969484;28;1346;-56
2022/04/23 11:47:30;;;;;;;;;;;;;;;19.15;70.17;100052.56;4968803;28;1721;-60
2022/04/23 11:50:07;;;;;;;;;;;;;;;18.98;71.39;100052.41;4962919;28;1938;-54
2022/04/23 11:52:34;;;;;;;;;;;;;;;19.10;72.13;100061.06;4966256;28;1585;-56
2022/04/23 11:55:01;;;;;;;;;;;;;;;19.03;70.86;100058.13;4969590;28;1502;-59
2022/04/23 11:57:29;;;;;;;;;;;;;;;18.92;71.03;100058.38;4970774;28;1511;-48
2022/04/23 12:00:00;;;;;;;;;;;;;;;18.80;71.98;100049.72;4969353;28;1523;-59
2022/04/23 12:02:28;;;;;;;;;;;;;;;18.77;71.29;100059.84;4965796;28;1159;-58
2022/04/23 12:04:57;;;;;;;;;;;;;;;18.94;70.58;100051.03;4974542;28;1656;-59
2022/04/23 12:07:24;;;;;;;;;;;;;;;18.96;69.84;100057.06;4967280;28;1325;-48
2022/04/23 12:09:51;;;;;;;;;;;;;;;19.01;70.08;100060.13;4969303;28;1977;-58
2022/04/23 12:12:20;;;;;;;;;;;;;;;18.81;70.87;100040.66;4968772;28;1401;-48
2022/04/23 12:14:49;;;;;;;;;;;;;;;18.80;71.01;100062.25;4965102;28;1636;-50
2022/04/23 12:17:22;;;;;;;;;;;;;;;18.72;70.82;100054.97;4967504;28;1333;-50
2022/04/23 12:19:48;;;;;;;;;;;;;;;18.74;69.65;100052.97;4961423;28;1748;-52
2022/04/23 12:22:22;;;;;;;;;;;;;;;18.75;70.35;100045.78;4969871;28;1637;-60
2022/04/23 12:24:49;;;;;;;;;;;;;;;18.86;69.21;100032.16;4963129;28;983;-62
2022/04/23 12:27:17;;;;;;;;;;;;;;;18.82;69.45;100033.47;4963231;28;1414;-49
2022/04/23 12:40:50;;;;;;;;;;;;;;;18.70;72.33;100046.22;4963341;28;1553;-55
2022/04/23 12:43:28;;;;;;;;;;;;;;;18.68;71.38;100038.34;4965738;28;1630;-56
2022/04/23 12:46:06;;;;;;;;;;;;;;;18.60;71.97;100032.91;4966038;28;1367;-56
2022/04/23 12:48:34;;;;;;;;;;;;;;;18.67;72.38;100030.47;4962241;28;1304;-57
2022/04/23 12:51:06;;;;;;;;;;;;;;;18.67;71.78;100028.63;4959153;28;1922;-68
2022/04/23 12:53:36;;;;;;;;;;;;;;;18.64;72.95;100015.53;4963301;28;1672;-51
2022/04/23 12:56:06;;;;;;;;;;;;;;;18.62;72.43;100019.34;4953839;28;1554;-51
2022/04/23 12:58:32;;;;;;;;;;;;;;;18.74;71.43;100020.84;4960546;28;1779;-53
2022/04/23 13:00:59;;;;;;;;;;;;;;;18.76;71.97;100017.97;4959995;28;1520;-59
2022/04/23 13:03:34;;;;;;;;;;;;;;;18.67;72.15;100020.56;4955648;28;1396;-59
2022/04/23 13:06:01;;;;;;;;;;;;;;;18.65;72.11;100022.56;4958657;28;1373;-60
2022/04/23 13:11:27;;;;;;;;;;;;;;;18.64;71.66;100010.19;4958152;28;1942;-60
2022/04/23 13:13:55;;;;;;;;;;;;;;;18.63;73.72;100004.97;4959244;28;1296;-59
2022/04/23 13:16:24;;;;;;;;;;;;;;;18.60;73.81;100006.13;4959825;28;1445;-60
2022/04/23 13:18:54;;;;;;;;;;;;;;;18.64;74.82;100012.88;4957127;28;1242;-60
2022/04/23 13:21:22;;;;;;;;;;;;;;;18.63;75.92;100011.16;4957232;28;1578;-72
2022/04/23 13:23:51;;;;;;;;;;;;;;;18.60;75.35;100011.47;4974050;28;1665;-70
2022/04/23 13:26:18;;;;;;;;;;;;;;;18.60;74.68;100015.97;4968718;28;1418;-69
2022/04/23 13:28:44;;;;;;;;;;;;;;;18.62;75.02;100005.94;4962526;28;1282;-60
2022/04/23 13:31:11;;;;;;;;;;;;;;;18.63;74.18;100000.44;4959221;28;1927;-60
2022/04/23 13:33:38;;;;;;;;;;;;;;;18.61;74.32;100007.78;4960278;28;1314;-59
2022/04/23 13:36:07;;;;;;;;;;;;;;;18.66;73.03;100001.97;4955065;28;1815;-60
2022/04/23 13:38:34;;;;;;;;;;;;;;;18.54;69.41;99996.00;4960295;28;1375;-59